createdAt,value
2018-08-30T00:00:30.234Z,0
2018-08-30T00:01:29.439Z,0
2018-08-30T00:02:29.946Z,0
2018-08-30T00:03:29.975Z,0
2018-08-30T00:04:29.987Z,0
2018-08-30T00:05:30.218Z,0
2018-08-30T00:06:29.742Z,0
2018-08-30T00:07:30.238Z,0
2018-08-30T00:08:30.236Z,0
2018-08-30T00:09:29.947Z,0
2018-08-30T00:10:30.463Z,0
2018-08-30T00:11:29.716Z,0
2018-08-30T00:12:30.485Z,0
2018-08-30T00:13:29.987Z,0
2018-08-30T00:14:30.248Z,0
2018-08-30T00:15:30.033Z,0
2018-08-30T00:16:29.451Z,0
2018-08-30T00:17:29.459Z,0
2018-08-30T00:18:30.223Z,0
2018-08-30T00:19:30.215Z,0
2018-08-30T00:20:30.312Z,0
2018-08-30T00:21:29.737Z,0
2018-08-30T00:22:30.515Z,0
2018-08-30T00:23:30.036Z,0
2018-08-30T00:24:30.252Z,0
2018-08-30T00:25:30.079Z,0
2018-08-30T00:26:30.286Z,0
2018-08-30T00:27:30.007Z,0
2018-08-30T00:28:30.540Z,0
2018-08-30T00:29:30.275Z,0
2018-08-30T00:30:30.061Z,0
2018-08-30T00:31:30.001Z,0
2018-08-30T00:32:30.538Z,0
2018-08-30T00:33:30.260Z,0
2018-08-30T00:34:29.812Z,0
2018-08-30T00:35:30.275Z,0
2018-08-30T00:36:30.256Z,0
2018-08-30T00:37:30.540Z,0
2018-08-30T00:38:29.493Z,0
2018-08-30T00:39:30.013Z,0
2018-08-30T00:40:30.275Z,0
2018-08-30T00:41:30.380Z,0
2018-08-30T00:42:30.282Z,0
2018-08-30T00:43:30.544Z,0
2018-08-30T00:44:30.041Z,0
2018-08-30T00:45:29.891Z,0
2018-08-30T00:46:30.528Z,0
2018-08-30T00:47:30.307Z,0
2018-08-30T00:48:30.039Z,0
2018-08-30T00:49:30.067Z,0
2018-08-30T00:50:29.908Z,0
2018-08-30T00:51:29.777Z,0
2018-08-30T00:52:30.053Z,0
2018-08-30T00:53:30.312Z,0
2018-08-30T00:54:30.277Z,0
2018-08-30T00:55:30.054Z,0
2018-08-30T00:56:30.308Z,0
2018-08-30T00:57:30.040Z,0
2018-08-30T00:58:30.043Z,0
2018-08-30T00:59:30.322Z,0
2018-08-30T01:00:30.068Z,0
2018-08-30T01:01:30.078Z,0
2018-08-30T01:02:30.310Z,0
2018-08-30T01:03:30.050Z,0
2018-08-30T01:04:30.589Z,0
2018-08-30T01:05:29.860Z,0
2018-08-30T01:06:30.314Z,0
2018-08-30T01:07:29.563Z,0
2018-08-30T01:08:30.686Z,0
2018-08-30T01:09:30.316Z,0
2018-08-30T01:10:30.630Z,0
2018-08-30T01:11:30.346Z,0
2018-08-30T01:12:30.056Z,0
2018-08-30T01:13:30.327Z,0
2018-08-30T01:14:30.090Z,0
2018-08-30T01:15:29.893Z,0
2018-08-30T01:16:30.068Z,0
2018-08-30T01:17:29.811Z,0
2018-08-30T01:18:30.088Z,0
2018-08-30T01:19:30.247Z,0
2018-08-30T01:20:30.324Z,0
2018-08-30T01:21:29.817Z,0
2018-08-30T01:22:30.338Z,0
2018-08-30T01:23:30.434Z,0
2018-08-30T01:24:30.386Z,0
2018-08-30T01:25:30.396Z,0
2018-08-30T01:26:29.822Z,0
2018-08-30T01:27:29.828Z,0
2018-08-30T01:28:30.076Z,0
2018-08-30T01:29:30.359Z,0
2018-08-30T01:30:30.643Z,0
2018-08-30T01:31:29.833Z,0
2018-08-30T01:32:30.626Z,0
2018-08-30T01:33:30.616Z,0
2018-08-30T01:34:30.337Z,0
2018-08-30T01:35:30.124Z,0
2018-08-30T01:36:30.362Z,0
2018-08-30T01:37:30.109Z,0
2018-08-30T01:38:30.093Z,0
2018-08-30T01:39:30.096Z,0
2018-08-30T01:40:30.638Z,0
2018-08-30T01:41:30.632Z,0
2018-08-30T01:42:29.848Z,0
2018-08-30T01:43:30.095Z,0
2018-08-30T01:44:30.091Z,0
2018-08-30T01:45:30.106Z,0
2018-08-30T01:46:30.622Z,0
2018-08-30T01:47:30.361Z,0
2018-08-30T01:48:30.361Z,0
2018-08-30T01:49:29.873Z,0
2018-08-30T01:50:30.470Z,0
2018-08-30T01:51:29.605Z,0
2018-08-30T01:52:29.847Z,0
2018-08-30T01:53:30.161Z,0
2018-08-30T01:54:30.370Z,0
2018-08-30T01:55:30.212Z,0
2018-08-30T01:56:30.628Z,0
2018-08-30T01:57:29.873Z,0
2018-08-30T01:58:30.115Z,0
2018-08-30T01:59:30.130Z,0
2018-08-30T02:00:30.196Z,0
2018-08-30T02:01:30.134Z,0
2018-08-30T02:02:30.371Z,0
2018-08-30T02:03:30.392Z,0
2018-08-30T02:04:30.394Z,0
2018-08-30T02:05:30.422Z,0
2018-08-30T02:06:30.451Z,0
2018-08-30T02:07:29.731Z,0
2018-08-30T02:08:30.144Z,0
2018-08-30T02:09:30.132Z,0
2018-08-30T02:10:29.924Z,0
2018-08-30T02:11:30.430Z,0
2018-08-30T02:12:30.399Z,0
2018-08-30T02:13:29.663Z,0
2018-08-30T02:14:30.425Z,0
2018-08-30T02:15:30.436Z,0
2018-08-30T02:16:30.160Z,0
2018-08-30T02:17:30.153Z,0
2018-08-30T02:18:30.142Z,0
2018-08-30T02:19:29.923Z,0
2018-08-30T02:20:30.524Z,0
2018-08-30T02:21:30.463Z,0
2018-08-30T02:22:30.676Z,0
2018-08-30T02:23:30.421Z,0
2018-08-30T02:24:29.903Z,0
2018-08-30T02:25:30.220Z,0
2018-08-30T02:26:30.160Z,0
2018-08-30T02:27:30.415Z,0
2018-08-30T02:28:30.407Z,0
2018-08-30T02:29:30.435Z,0
2018-08-30T02:30:30.201Z,0
2018-08-30T02:31:30.173Z,0
2018-08-30T02:32:30.728Z,0
2018-08-30T02:33:29.908Z,0
2018-08-30T02:34:30.160Z,0
2018-08-30T02:35:30.235Z,0
2018-08-30T02:36:30.161Z,0
2018-08-30T02:37:30.423Z,0
2018-08-30T02:38:30.430Z,0
2018-08-30T02:39:30.439Z,0
2018-08-30T02:40:29.944Z,0
2018-08-30T02:41:30.448Z,0
2018-08-30T02:42:30.793Z,0
2018-08-30T02:43:30.225Z,0
2018-08-30T02:44:29.910Z,0
2018-08-30T02:45:30.169Z,0
2018-08-30T02:46:30.433Z,0
2018-08-30T02:47:30.195Z,0
2018-08-30T02:48:30.421Z,0
2018-08-30T02:49:30.179Z,0
2018-08-30T02:50:30.199Z,0
2018-08-30T02:51:30.674Z,0
2018-08-30T02:52:30.679Z,0
2018-08-30T02:53:30.447Z,0
2018-08-30T02:54:29.916Z,0
2018-08-30T02:55:30.511Z,0
2018-08-30T02:56:30.686Z,0
2018-08-30T02:57:30.715Z,0
2018-08-30T02:58:30.434Z,0
2018-08-30T02:59:30.442Z,0
2018-08-30T03:00:30.226Z,0
2018-08-30T03:01:30.689Z,0
2018-08-30T03:02:30.446Z,0
2018-08-30T03:03:30.183Z,0
2018-08-30T03:04:29.953Z,0
2018-08-30T03:05:29.779Z,0
2018-08-30T03:06:30.441Z,0
2018-08-30T03:07:30.435Z,0
2018-08-30T03:08:30.194Z,0
2018-08-30T03:09:30.465Z,0
2018-08-30T03:10:30.494Z,0
2018-08-30T03:11:30.458Z,0
2018-08-30T03:12:30.448Z,0
2018-08-30T03:13:30.448Z,0
2018-08-30T03:14:30.180Z,0
2018-08-30T03:15:30.727Z,0
2018-08-30T03:16:30.193Z,0
2018-08-30T03:17:30.696Z,0
2018-08-30T03:18:30.189Z,0
2018-08-30T03:19:30.455Z,0
2018-08-30T03:20:30.251Z,0
2018-08-30T03:21:30.520Z,0
2018-08-30T03:22:30.709Z,0
2018-08-30T03:23:30.460Z,0
2018-08-30T03:24:30.707Z,0
2018-08-30T03:25:30.763Z,0
2018-08-30T03:26:30.700Z,0
2018-08-30T03:27:30.446Z,0
2018-08-30T03:28:29.945Z,0
2018-08-30T03:29:30.486Z,0
2018-08-30T03:30:31.177Z,0
2018-08-30T03:31:30.500Z,0
2018-08-30T03:32:31.532Z,0
2018-08-30T03:33:29.707Z,0
2018-08-30T03:34:29.954Z,0
2018-08-30T03:35:30.728Z,0
2018-08-30T03:36:30.487Z,0
2018-08-30T03:37:30.203Z,0
2018-08-30T03:38:29.945Z,0
2018-08-30T03:39:30.198Z,0
2018-08-30T03:40:30.825Z,0
2018-08-30T03:41:30.201Z,0
2018-08-30T03:42:30.454Z,0
2018-08-30T03:43:30.714Z,0
2018-08-30T03:44:30.215Z,0
2018-08-30T03:45:30.797Z,0
2018-08-30T03:46:30.494Z,0
2018-08-30T03:47:30.618Z,0
2018-08-30T03:48:30.720Z,0
2018-08-30T03:49:30.205Z,0
2018-08-30T03:50:30.258Z,0
2018-08-30T03:51:30.708Z,0
2018-08-30T03:52:30.459Z,0
2018-08-30T03:53:30.209Z,0
2018-08-30T03:54:30.713Z,0
2018-08-30T03:55:30.440Z,0
2018-08-30T03:56:30.466Z,0
2018-08-30T03:57:30.216Z,0
2018-08-30T03:58:30.472Z,0
2018-08-30T03:59:30.218Z,0
2018-08-30T04:00:30.222Z,0
2018-08-30T04:01:30.473Z,0
2018-08-30T04:02:30.753Z,0
2018-08-30T04:03:30.463Z,0
2018-08-30T04:04:30.611Z,0
2018-08-30T04:05:30.561Z,0
2018-08-30T04:06:30.470Z,0
2018-08-30T04:07:29.956Z,0
2018-08-30T04:08:30.473Z,0
2018-08-30T04:09:30.504Z,0
2018-08-30T04:10:30.541Z,0
2018-08-30T04:11:30.219Z,0
2018-08-30T04:12:29.968Z,0
2018-08-30T04:13:30.650Z,0
2018-08-30T04:14:30.746Z,0
2018-08-30T04:15:30.023Z,0
2018-08-30T04:16:30.500Z,0
2018-08-30T04:17:31.591Z,0
2018-08-30T04:18:30.243Z,0
2018-08-30T04:19:29.989Z,0
2018-08-30T04:20:30.833Z,0
2018-08-30T04:21:30.511Z,0
2018-08-30T04:22:30.491Z,0
2018-08-30T04:23:30.251Z,0
2018-08-30T04:24:30.264Z,0
2018-08-30T04:25:29.982Z,0
2018-08-30T04:26:30.748Z,0
2018-08-30T04:27:30.485Z,0
2018-08-30T04:28:30.239Z,0
2018-08-30T04:29:30.244Z,0
2018-08-30T04:30:30.507Z,0
2018-08-30T04:31:30.757Z,0
2018-08-30T04:32:31.290Z,0
2018-08-30T04:33:30.268Z,0
2018-08-30T04:34:30.491Z,0
2018-08-30T04:35:30.514Z,0
2018-08-30T04:36:30.260Z,0
2018-08-30T04:37:30.242Z,0
2018-08-30T04:38:30.523Z,0
2018-08-30T04:39:30.252Z,0
2018-08-30T04:40:30.525Z,0
2018-08-30T04:41:30.770Z,0
2018-08-30T04:42:31.468Z,0
2018-08-30T04:43:30.263Z,0
2018-08-30T04:44:29.990Z,0
2018-08-30T04:45:30.599Z,0
2018-08-30T04:46:30.526Z,0
2018-08-30T04:47:30.800Z,0
2018-08-30T04:48:30.263Z,0
2018-08-30T04:49:30.770Z,0
2018-08-30T04:50:30.757Z,0
2018-08-30T04:51:30.268Z,0
2018-08-30T04:52:30.002Z,0
2018-08-30T04:53:30.017Z,0
2018-08-30T04:54:30.806Z,0
2018-08-30T04:55:30.849Z,0
2018-08-30T04:56:33.269Z,0
2018-08-30T04:57:30.833Z,0
2018-08-30T04:58:30.273Z,0
2018-08-30T04:59:30.005Z,0
2018-08-30T05:00:30.317Z,0
2018-08-30T05:01:30.513Z,5
2018-08-30T05:02:30.025Z,5
2018-08-30T05:03:30.284Z,5
2018-08-30T05:04:30.539Z,5
2018-08-30T05:05:30.377Z,5
2018-08-30T05:06:30.268Z,10
2018-08-30T05:07:30.053Z,10
2018-08-30T05:08:30.275Z,15
2018-08-30T05:09:30.528Z,15
2018-08-30T05:10:30.524Z,15
2018-08-30T05:11:30.271Z,15
2018-08-30T05:12:30.276Z,10
2018-08-30T05:13:30.609Z,10
2018-08-30T05:14:30.041Z,10
2018-08-30T05:15:30.576Z,10
2018-08-30T05:16:31.029Z,10
2018-08-30T05:17:30.542Z,10
2018-08-30T05:18:30.535Z,10
2018-08-30T05:19:30.697Z,10
2018-08-30T05:20:30.312Z,10
2018-08-30T05:21:30.520Z,10
2018-08-30T05:22:30.809Z,10
2018-08-30T05:23:30.703Z,10
2018-08-30T05:24:30.277Z,10
2018-08-30T05:25:30.347Z,10
2018-08-30T05:26:30.302Z,10
2018-08-30T05:27:30.790Z,10
2018-08-30T05:28:30.024Z,10
2018-08-30T05:29:30.309Z,10
2018-08-30T05:30:30.288Z,5
2018-08-30T05:31:30.284Z,5
2018-08-30T05:32:30.304Z,5
2018-08-30T05:33:30.549Z,5
2018-08-30T05:34:30.030Z,5
2018-08-30T05:35:30.569Z,5
2018-08-30T05:36:30.826Z,5
2018-08-30T05:37:30.576Z,5
2018-08-30T05:38:30.545Z,5
2018-08-30T05:39:30.290Z,10
2018-08-30T05:40:30.061Z,10
2018-08-30T05:41:30.565Z,10
2018-08-30T05:42:30.820Z,10
2018-08-30T05:43:30.309Z,10
2018-08-30T05:44:30.556Z,10
2018-08-30T05:45:30.135Z,10
2018-08-30T05:46:30.094Z,10
2018-08-30T05:47:30.054Z,10
2018-08-30T05:48:30.858Z,10
2018-08-30T05:49:30.086Z,10
2018-08-30T05:50:30.386Z,10
2018-08-30T05:51:30.316Z,10
2018-08-30T05:52:30.311Z,10
2018-08-30T05:53:29.796Z,10
2018-08-30T05:54:30.325Z,10
2018-08-30T05:55:30.325Z,10
2018-08-30T05:56:30.822Z,10
2018-08-30T05:57:30.573Z,10
2018-08-30T05:58:30.829Z,10
2018-08-30T05:59:30.060Z,10
2018-08-30T06:00:30.638Z,10
2018-08-30T06:01:30.311Z,15
2018-08-30T06:02:30.076Z,15
2018-08-30T06:03:30.864Z,15
2018-08-30T06:04:29.796Z,15
2018-08-30T06:05:30.368Z,15
2018-08-30T06:06:30.332Z,15
2018-08-30T06:07:30.221Z,15
2018-08-30T06:08:32.710Z,15
2018-08-30T06:09:30.308Z,20
2018-08-30T06:10:30.608Z,20
2018-08-30T06:11:30.574Z,20
2018-08-30T06:12:30.316Z,20
2018-08-30T06:13:30.577Z,15
2018-08-30T06:14:30.585Z,15
2018-08-30T06:15:30.344Z,15
2018-08-30T06:16:30.835Z,15
2018-08-30T06:17:30.315Z,15
2018-08-30T06:18:29.803Z,15
2018-08-30T06:19:30.334Z,20
2018-08-30T06:20:30.650Z,25
2018-08-30T06:21:30.597Z,25
2018-08-30T06:22:30.072Z,30
2018-08-30T06:23:30.376Z,40
2018-08-30T06:24:30.066Z,55
2018-08-30T06:25:30.429Z,55
2018-08-30T06:26:30.582Z,60
2018-08-30T06:27:30.070Z,60
2018-08-30T06:28:30.329Z,55
2018-08-30T06:29:30.235Z,50
2018-08-30T06:30:30.627Z,45
2018-08-30T06:31:30.333Z,45
2018-08-30T06:32:30.341Z,50
2018-08-30T06:33:30.329Z,50
2018-08-30T06:34:30.627Z,65
2018-08-30T06:35:30.405Z,75
2018-08-30T06:36:30.899Z,75
2018-08-30T06:37:30.584Z,75
2018-08-30T06:38:30.928Z,75
2018-08-30T06:39:30.334Z,80
2018-08-30T06:40:30.178Z,80
2018-08-30T06:41:30.341Z,75
2018-08-30T06:42:30.331Z,75
2018-08-30T06:43:30.344Z,80
2018-08-30T06:44:30.337Z,85
2018-08-30T06:45:30.912Z,85
2018-08-30T06:46:29.832Z,90
2018-08-30T06:47:30.613Z,95
2018-08-30T06:48:30.978Z,95
2018-08-30T06:49:30.397Z,90
2018-08-30T06:50:30.187Z,85
2018-08-30T06:51:30.609Z,85
2018-08-30T06:52:30.346Z,90
2018-08-30T06:53:30.611Z,95
2018-08-30T06:54:30.346Z,95
2018-08-30T06:55:30.666Z,95
2018-08-30T06:56:31.089Z,85
2018-08-30T06:57:30.599Z,90
2018-08-30T06:58:30.959Z,90
2018-08-30T06:59:30.873Z,80
2018-08-30T07:00:30.609Z,80
2018-08-30T07:01:30.608Z,75
2018-08-30T07:02:30.089Z,65
2018-08-30T07:03:30.197Z,55
2018-08-30T07:04:30.532Z,50
2018-08-30T07:05:30.968Z,45
2018-08-30T07:06:30.599Z,40
2018-08-30T07:07:30.099Z,40
2018-08-30T07:08:30.099Z,45
2018-08-30T07:09:29.879Z,55
2018-08-30T07:10:30.444Z,60
2018-08-30T07:11:30.107Z,75
2018-08-30T07:12:30.350Z,85
2018-08-30T07:13:30.643Z,100
2018-08-30T07:14:30.739Z,115
2018-08-30T07:15:30.643Z,125
2018-08-30T07:16:30.399Z,130
2018-08-30T07:17:30.636Z,135
2018-08-30T07:18:33.618Z,145
2018-08-30T07:19:30.385Z,155
2018-08-30T07:20:30.703Z,160
2018-08-30T07:21:30.373Z,165
2018-08-30T07:22:30.354Z,170
2018-08-30T07:23:30.361Z,175
2018-08-30T07:24:31.309Z,150
2018-08-30T07:25:30.747Z,130
2018-08-30T07:26:30.622Z,130
2018-08-30T07:27:30.111Z,130
2018-08-30T07:28:30.518Z,150
2018-08-30T07:29:29.853Z,145
2018-08-30T07:30:30.706Z,145
2018-08-30T07:31:30.376Z,150
2018-08-30T07:32:30.624Z,165
2018-08-30T07:33:30.362Z,175
2018-08-30T07:34:30.624Z,185
2018-08-30T07:35:30.366Z,195
2018-08-30T07:36:30.636Z,205
2018-08-30T07:37:30.376Z,210
2018-08-30T07:38:30.380Z,200
2018-08-30T07:39:30.163Z,195
2018-08-30T07:40:30.411Z,190
2018-08-30T07:41:30.897Z,185
2018-08-30T07:42:30.443Z,185
2018-08-30T07:43:29.874Z,185
2018-08-30T07:44:31.669Z,185
2018-08-30T07:45:30.681Z,190
2018-08-30T07:46:30.380Z,200
2018-08-30T07:47:30.545Z,210
2018-08-30T07:48:30.899Z,205
2018-08-30T07:49:34.419Z,215
2018-08-30T07:50:30.528Z,235
2018-08-30T07:51:30.813Z,280
2018-08-30T07:52:30.666Z,290
2018-08-30T07:53:30.681Z,300
2018-08-30T07:54:30.902Z,290
2018-08-30T07:55:30.691Z,225
2018-08-30T07:56:30.935Z,225
2018-08-30T07:57:31.024Z,230
2018-08-30T07:58:30.414Z,255
2018-08-30T07:59:30.675Z,240
2018-08-30T08:00:30.728Z,250
2018-08-30T08:01:30.178Z,250
2018-08-30T08:02:30.439Z,230
2018-08-30T08:03:30.932Z,210
2018-08-30T08:04:30.669Z,190
2018-08-30T08:05:30.740Z,170
2018-08-30T08:06:30.177Z,160
2018-08-30T08:07:30.852Z,165
2018-08-30T08:08:30.951Z,165
2018-08-30T08:09:30.185Z,165
2018-08-30T08:10:31.072Z,165
2018-08-30T08:11:30.979Z,165
2018-08-30T08:12:30.735Z,150
2018-08-30T08:13:30.698Z,140
2018-08-30T08:14:30.449Z,135
2018-08-30T08:15:30.747Z,135
2018-08-30T08:16:30.725Z,130
2018-08-30T08:17:30.511Z,140
2018-08-30T08:18:31.005Z,145
2018-08-30T08:19:30.992Z,165
2018-08-30T08:20:30.561Z,185
2018-08-30T08:21:30.468Z,200
2018-08-30T08:22:30.734Z,205
2018-08-30T08:23:30.494Z,210
2018-08-30T08:24:30.980Z,210
2018-08-30T08:25:31.542Z,215
2018-08-30T08:26:29.973Z,215
2018-08-30T08:27:30.750Z,220
2018-08-30T08:28:30.213Z,220
2018-08-30T08:29:30.230Z,220
2018-08-30T08:30:30.541Z,220
2018-08-30T08:31:31.221Z,225
2018-08-30T08:32:30.513Z,230
2018-08-30T08:33:30.496Z,235
2018-08-30T08:34:30.494Z,235
2018-08-30T08:35:30.846Z,240
2018-08-30T08:36:30.485Z,250
2018-08-30T08:37:31.028Z,245
2018-08-30T08:38:30.486Z,240
2018-08-30T08:39:30.498Z,225
2018-08-30T08:40:30.528Z,225
2018-08-30T08:41:30.256Z,220
2018-08-30T08:42:31.015Z,210
2018-08-30T08:43:30.491Z,205
2018-08-30T08:44:30.766Z,195
2018-08-30T08:45:31.066Z,190
2018-08-30T08:46:31.014Z,185
2018-08-30T08:47:31.020Z,180
2018-08-30T08:48:31.024Z,180
2018-08-30T08:49:31.075Z,180
2018-08-30T08:50:30.783Z,185
2018-08-30T08:51:30.522Z,185
2018-08-30T08:52:30.783Z,195
2018-08-30T08:53:30.259Z,205
2018-08-30T08:54:30.802Z,215
2018-08-30T08:55:30.529Z,225
2018-08-30T08:56:30.545Z,230
2018-08-30T08:57:30.293Z,235
2018-08-30T08:58:30.806Z,240
2018-08-30T08:59:30.849Z,240
2018-08-30T09:00:31.116Z,250
2018-08-30T09:01:31.292Z,245
2018-08-30T09:02:30.544Z,245
2018-08-30T09:03:30.644Z,250
2018-08-30T09:04:30.630Z,260
2018-08-30T09:05:30.847Z,270
2018-08-30T09:06:31.195Z,275
2018-08-30T09:07:30.983Z,280
2018-08-30T09:08:30.827Z,280
2018-08-30T09:09:30.388Z,280
2018-08-30T09:10:30.871Z,280
2018-08-30T09:11:30.828Z,285
2018-08-30T09:12:30.828Z,290
2018-08-30T09:13:30.842Z,280
2018-08-30T09:14:31.375Z,280
2018-08-30T09:15:30.856Z,280
2018-08-30T09:16:30.906Z,280
2018-08-30T09:17:30.322Z,275
2018-08-30T09:18:31.688Z,275
2018-08-30T09:19:30.856Z,275
2018-08-30T09:20:33.309Z,265
2018-08-30T09:21:30.630Z,260
2018-08-30T09:22:30.367Z,260
2018-08-30T09:23:30.591Z,250
2018-08-30T09:24:30.865Z,250
2018-08-30T09:25:30.654Z,250
2018-08-30T09:26:30.887Z,250
2018-08-30T09:27:30.849Z,250
2018-08-30T09:28:30.372Z,250
2018-08-30T09:29:30.099Z,265
2018-08-30T09:30:30.412Z,260
2018-08-30T09:31:31.156Z,265
2018-08-30T09:32:30.881Z,275
2018-08-30T09:33:30.878Z,275
2018-08-30T09:34:30.888Z,280
2018-08-30T09:35:30.485Z,290
2018-08-30T09:36:30.876Z,290
2018-08-30T09:37:30.709Z,295
2018-08-30T09:38:30.377Z,305
2018-08-30T09:39:30.706Z,300
2018-08-30T09:40:31.005Z,315
2018-08-30T09:41:30.385Z,365
2018-08-30T09:42:31.146Z,400
2018-08-30T09:43:30.901Z,405
2018-08-30T09:44:30.403Z,415
2018-08-30T09:45:30.719Z,395
2018-08-30T09:46:30.917Z,345
2018-08-30T09:47:30.901Z,355
2018-08-30T09:48:31.164Z,335
2018-08-30T09:49:31.734Z,365
2018-08-30T09:50:30.703Z,350
2018-08-30T09:51:30.415Z,380
2018-08-30T09:52:31.196Z,375
2018-08-30T09:53:31.177Z,375
2018-08-30T09:54:30.424Z,310
2018-08-30T09:55:30.250Z,310
2018-08-30T09:56:30.946Z,310
2018-08-30T09:57:31.461Z,295
2018-08-30T09:58:30.717Z,290
2018-08-30T09:59:30.748Z,280
2018-08-30T10:00:31.084Z,270
2018-08-30T10:01:30.726Z,265
2018-08-30T10:02:30.723Z,260
2018-08-30T10:03:30.715Z,265
2018-08-30T10:04:30.525Z,265
2018-08-30T10:05:30.806Z,270
2018-08-30T10:06:31.223Z,275
2018-08-30T10:07:31.017Z,275
2018-08-30T10:08:31.026Z,285
2018-08-30T10:09:31.040Z,300
2018-08-30T10:10:31.023Z,310
2018-08-30T10:11:31.017Z,330
2018-08-30T10:12:31.006Z,285
2018-08-30T10:13:31.290Z,300
2018-08-30T10:14:31.059Z,290
2018-08-30T10:15:30.863Z,300
2018-08-30T10:16:31.026Z,310
2018-08-30T10:17:30.533Z,320
2018-08-30T10:18:30.774Z,355
2018-08-30T10:19:30.516Z,345
2018-08-30T10:20:35.566Z,300
2018-08-30T10:21:31.037Z,270
2018-08-30T10:22:31.285Z,250
2018-08-30T10:23:30.782Z,210
2018-08-30T10:24:31.046Z,185
2018-08-30T10:25:31.130Z,160
2018-08-30T10:26:31.302Z,145
2018-08-30T10:27:30.812Z,135
2018-08-30T10:28:30.319Z,125
2018-08-30T10:29:30.540Z,125
2018-08-30T10:30:30.853Z,130
2018-08-30T10:31:31.647Z,130
2018-08-30T10:32:30.539Z,135
2018-08-30T10:33:31.067Z,145
2018-08-30T10:34:30.813Z,160
2018-08-30T10:35:30.918Z,170
2018-08-30T10:36:31.066Z,175
2018-08-30T10:37:31.117Z,180
2018-08-30T10:38:31.323Z,175
2018-08-30T10:39:30.557Z,170
2018-08-30T10:40:30.887Z,165
2018-08-30T10:41:30.817Z,160
2018-08-30T10:42:30.816Z,175
2018-08-30T10:43:30.896Z,165
2018-08-30T10:44:31.348Z,180
2018-08-30T10:45:30.900Z,195
2018-08-30T10:46:30.874Z,220
2018-08-30T10:47:31.149Z,240
2018-08-30T10:48:30.618Z,255
2018-08-30T10:49:31.868Z,265
2018-08-30T10:50:32.724Z,275
2018-08-30T10:51:30.594Z,285
2018-08-30T10:52:30.855Z,285
2018-08-30T10:53:30.621Z,270
2018-08-30T10:54:30.877Z,260
2018-08-30T10:55:30.901Z,240
2018-08-30T10:56:31.426Z,230
2018-08-30T10:57:31.167Z,220
2018-08-30T10:58:31.143Z,210
2018-08-30T10:59:31.129Z,205
2018-08-30T11:00:31.147Z,195
2018-08-30T11:01:31.143Z,195
2018-08-30T11:02:31.153Z,195
2018-08-30T11:03:31.391Z,195
2018-08-30T11:04:31.450Z,195
2018-08-30T11:05:31.245Z,200
2018-08-30T11:06:31.146Z,205
2018-08-30T11:07:31.159Z,215
2018-08-30T11:08:31.407Z,230
2018-08-30T11:09:31.416Z,250
2018-08-30T11:10:30.727Z,255
2018-08-30T11:11:31.403Z,265
2018-08-30T11:12:31.152Z,270
2018-08-30T11:13:31.510Z,285
2018-08-30T11:14:31.157Z,335
2018-08-30T11:15:30.833Z,325
2018-08-30T11:16:31.428Z,335
2018-08-30T11:17:30.950Z,310
2018-08-30T11:18:31.434Z,265
2018-08-30T11:19:31.229Z,245
2018-08-30T11:20:31.121Z,230
2018-08-30T11:21:30.683Z,235
2018-08-30T11:22:31.284Z,240
2018-08-30T11:23:31.285Z,250
2018-08-30T11:24:31.292Z,265
2018-08-30T11:25:31.016Z,285
2018-08-30T11:26:30.694Z,300
2018-08-30T11:27:31.199Z,310
2018-08-30T11:28:31.463Z,320
2018-08-30T11:29:30.958Z,330
2018-08-30T11:30:30.997Z,330
2018-08-30T11:31:31.249Z,325
2018-08-30T11:32:31.497Z,315
2018-08-30T11:33:31.478Z,335
2018-08-30T11:34:30.980Z,295
2018-08-30T11:35:31.546Z,315
2018-08-30T11:36:31.246Z,335
2018-08-30T11:37:31.356Z,330
2018-08-30T11:38:30.744Z,330
2018-08-30T11:39:31.255Z,330
2018-08-30T11:40:30.812Z,330
2018-08-30T11:41:32.371Z,310
2018-08-30T11:42:30.854Z,330
2018-08-30T11:43:31.454Z,345
2018-08-30T11:44:31.005Z,310
2018-08-30T11:45:31.064Z,320
2018-08-30T11:46:31.012Z,325
2018-08-30T11:47:31.080Z,345
2018-08-30T11:48:31.586Z,335
2018-08-30T11:49:31.087Z,315
2018-08-30T11:50:31.391Z,320
2018-08-30T11:51:32.961Z,325
2018-08-30T11:52:31.841Z,325
2018-08-30T11:53:30.834Z,365
2018-08-30T11:54:30.910Z,380
2018-08-30T11:55:31.121Z,345
2018-08-30T11:56:30.796Z,340
2018-08-30T11:57:30.811Z,310
2018-08-30T11:58:30.901Z,300
2018-08-30T11:59:30.813Z,295
2018-08-30T12:00:30.871Z,295
2018-08-30T12:01:31.317Z,325
2018-08-30T12:02:31.083Z,310
2018-08-30T12:03:31.138Z,265
2018-08-30T12:04:31.234Z,260
2018-08-30T12:05:31.174Z,305
2018-08-30T12:06:30.858Z,275
2018-08-30T12:07:31.111Z,265
2018-08-30T12:08:32.225Z,265
2018-08-30T12:09:31.107Z,255
2018-08-30T12:10:32.079Z,250
2018-08-30T12:11:30.932Z,255
2018-08-30T12:12:31.136Z,265
2018-08-30T12:13:31.113Z,275
2018-08-30T12:14:30.875Z,280
2018-08-30T12:15:31.638Z,305
2018-08-30T12:16:31.130Z,315
2018-08-30T12:17:31.214Z,330
2018-08-30T12:18:31.632Z,330
2018-08-30T12:19:31.152Z,325
2018-08-30T12:20:31.724Z,310
2018-08-30T12:21:31.626Z,300
2018-08-30T12:22:31.132Z,295
2018-08-30T12:23:30.894Z,305
2018-08-30T12:24:31.147Z,305
2018-08-30T12:25:31.215Z,260
2018-08-30T12:26:31.426Z,285
2018-08-30T12:27:31.698Z,285
2018-08-30T12:28:32.274Z,280
2018-08-30T12:29:31.815Z,245
2018-08-30T12:30:31.652Z,240
2018-08-30T12:31:32.158Z,235
2018-08-30T12:32:31.536Z,235
2018-08-30T12:33:31.164Z,240
2018-08-30T12:34:31.821Z,245
2018-08-30T12:35:32.552Z,240
2018-08-30T12:36:31.901Z,235
2018-08-30T12:37:31.604Z,265
2018-08-30T12:38:31.299Z,265
2018-08-30T12:39:31.448Z,265
2018-08-30T12:40:32.113Z,270
2018-08-30T12:41:31.620Z,240
2018-08-30T12:42:32.146Z,220
2018-08-30T12:43:32.094Z,210
2018-08-30T12:44:31.392Z,210
2018-08-30T12:45:31.952Z,205
2018-08-30T12:46:31.758Z,200
2018-08-30T12:47:31.870Z,200
2018-08-30T12:48:31.268Z,200
2018-08-30T12:49:31.310Z,200
2018-08-30T12:50:32.496Z,210
2018-08-30T12:51:32.918Z,210
2018-08-30T12:52:30.844Z,205
2018-08-30T12:53:31.830Z,210
2018-08-30T12:54:32.671Z,205
2018-08-30T12:55:32.566Z,205
2018-08-30T12:56:32.009Z,235
2018-08-30T12:57:32.305Z,235
2018-08-30T12:58:32.569Z,245
2018-08-30T12:59:32.381Z,240
2018-08-30T13:00:33.152Z,235
2018-08-30T13:01:32.529Z,235
2018-08-30T13:02:32.814Z,235
2018-08-30T13:03:32.211Z,235
2018-08-30T13:04:33.631Z,220
2018-08-30T13:05:32.838Z,240
2018-08-30T13:06:32.768Z,235
2018-08-30T13:07:32.164Z,215
2018-08-30T13:08:33.377Z,210
2018-08-30T13:09:33.275Z,220
2018-08-30T13:10:32.615Z,205
2018-08-30T13:11:34.801Z,205
2018-08-30T13:12:33.744Z,205
2018-08-30T13:13:33.988Z,205
2018-08-30T13:14:33.949Z,205
2018-08-30T13:15:34.141Z,215
2018-08-30T13:16:31.964Z,235
2018-08-30T13:17:31.693Z,245
2018-08-30T13:18:33.379Z,250
2018-08-30T13:19:33.397Z,255
2018-08-30T13:20:34.331Z,260
2018-08-30T13:21:33.635Z,265
2018-08-30T13:22:33.805Z,270
2018-08-30T13:23:32.545Z,265
2018-08-30T13:24:33.817Z,270
2018-08-30T13:25:33.744Z,280
2018-08-30T13:26:33.426Z,290
2018-08-30T13:27:32.637Z,290
2018-08-30T13:28:32.724Z,295
2018-08-30T13:29:32.973Z,295
2018-08-30T13:30:33.084Z,290
2018-08-30T13:31:33.681Z,290
2018-08-30T13:32:34.314Z,285
2018-08-30T13:33:35.115Z,285
2018-08-30T13:34:34.327Z,290
2018-08-30T13:35:35.299Z,285
2018-08-30T13:36:34.093Z,250
2018-08-30T13:37:34.859Z,240
2018-08-30T13:38:34.760Z,255
2018-08-30T13:39:33.794Z,235
2018-08-30T13:40:33.863Z,230
2018-08-30T13:41:35.747Z,255
2018-08-30T13:42:35.491Z,255
2018-08-30T13:43:33.816Z,255
2018-08-30T13:44:34.649Z,255
2018-08-30T13:45:35.589Z,260
2018-08-30T13:46:33.827Z,255
2018-08-30T13:47:35.181Z,255
2018-08-30T13:48:35.002Z,250
2018-08-30T13:49:32.858Z,235
2018-08-30T13:50:34.734Z,220
2018-08-30T13:51:36.225Z,210
2018-08-30T13:52:35.848Z,200
2018-08-30T13:53:33.980Z,200
2018-08-30T13:54:35.616Z,200
2018-08-30T13:55:34.769Z,225
2018-08-30T13:56:35.095Z,225
2018-08-30T13:57:36.822Z,225
2018-08-30T13:58:34.094Z,230
2018-08-30T13:59:33.951Z,230
2018-08-30T14:00:34.573Z,220
2018-08-30T14:01:34.491Z,220
2018-08-30T14:02:33.974Z,210
2018-08-30T14:03:34.182Z,205
2018-08-30T14:04:33.168Z,195
2018-08-30T14:05:33.965Z,205
2018-08-30T14:06:32.841Z,215
2018-08-30T14:07:34.722Z,220
2018-08-30T14:08:32.863Z,210
2018-08-30T14:09:33.880Z,180
2018-08-30T14:10:35.440Z,180
2018-08-30T14:11:33.341Z,185